| Date | Time | Temp. (oF) | Dew Point (oF) | Rel. Hum. (%) | Press. (in.) | Wind Dir. | Wind Speed (mph) | Hourly Rainfall (in.) |
|
|---|---|---|---|---|---|---|---|---|---|
| 1 | 07/07 | 00:00 | 71 | 54 | 57 | 30.18 | NNW | 5 | 0.00 |
| 2 | 07/06 | 23:00 | 73 | 56 | 57 | 30.16 | N | 8 | 0.00 |
| 3 | 07/06 | 22:00 | 75 | 57 | 55 | 30.13 | NW | 5 | 0.00 |
| 4 | 07/06 | 21:00 | 77 | 57 | 52 | 30.10 | NNE | 6 | 0.00 |
| 5 | 07/06 | 20:00 | 80 | 59 | 50 | 30.07 | NE | 3 | 0.00 |
| 6 | 07/06 | 19:00 | 82 | 59 | 47 | 30.05 | NW | 5 | 0.00 |
| 7 | 07/06 | 18:00 | 84 | 63 | 51 | 30.03 | N | 6 | 0.00 |
| 8 | 07/06 | 17:00 | 86 | 71 | 63 | 30.03 | WNW | 4 | 0.00 |
| 9 | 07/06 | 16:00 | 82 | 70 | 68 | 30.04 | S | 4 | 0.00 |
| 10 | 07/06 | 15:00 | 82 | 71 | 71 | 30.05 | W | 2 | 0.00 |
| 11 | 07/06 | 14:00 | 78 | 71 | 80 | 30.07 | NW | 4 | 0.02 |
| 12 | 07/06 | 13:00 | 79 | 73 | 84 | 30.08 | WNW | 9 | 0.01 |
| 13 | 07/06 | 12:00 | 77 | 74 | 92 | 30.09 | S | 8 | 0.01 |
| 14 | 07/06 | 11:00 | 76 | 73 | 92 | 30.09 | WSW | 2 | 0.03 |
| 15 | 07/06 | 10:00 | 77 | 71 | 82 | 30.08 | W | 5 | 0.01 |
| 16 | 07/06 | 09:00 | 80 | 71 | 75 | 30.08 | WNW | 4 | 0.00 |
| 17 | 07/06 | 08:00 | 79 | 74 | 85 | 30.08 | SSW | 2 | 0.00 |
| 18 | 07/06 | 07:00 | 77 | 74 | 91 | 30.07 | SSW | 4 | 0.00 |
| 19 | 07/06 | 06:00 | 78 | 74 | 90 | 30.07 | SW | 1 | 0.00 |
| 20 | 07/06 | 05:00 | 78 | 74 | 90 | 30.07 | SSW | 3 | 0.00 |
| 21 | 07/06 | 04:00 | 78 | 74 | 90 | 30.06 | S | 4 | 0.00 |
| 22 | 07/06 | 03:00 | 79 | 75 | 88 | 30.09 | SSW | 3 | 0.00 |
| 23 | 07/06 | 02:00 | 79 | 74 | 87 | 30.10 | S | 3 | 0.00 |
| 24 | 07/06 | 01:00 | 79 | 74 | 85 | 30.12 | S | 5 | 0.00 |